METAR Data
IDs: Format: Raw Decoded Include TAF

Data at: 2145 UTC 24 Mar 2019

KCOM 242135Z AUTO 22012G16KT 10SM CLR 29/10 A2997 RMK AO2 T02870101
KCOM 242115Z AUTO 22007KT 10SM CLR 29/09 A2998 RMK AO2 T02850093
KCOM 242055Z AUTO 20007G16KT 170V230 10SM SCT065 28/10 A2999 RMK AO2 T02840104
KCOM 242035Z AUTO 20009G15KT 10SM SCT065 28/11 A3000 RMK AO2 T02820111
KCOM 242015Z AUTO 22011G16KT 10SM CLR 28/11 A3001 RMK AO2 T02770111
KCOM 241955Z AUTO 21008KT 10SM SCT049 28/12 A3001 RMK AO2 T02750117
KCOM 241935Z AUTO 19011G16KT 10SM SCT049 28/12 A3002 RMK AO2 T02760121
KCOM 241915Z AUTO 20010G15KT 10SM CLR 27/13 A3003 RMK AO2 T02670129
KCOM 241855Z AUTO 21010KT 10SM CLR 26/14 A3004 RMK AO2 T02630137
KCOM 241835Z AUTO 22009G15KT 10SM CLR 26/14 A3005 RMK AO2 T02580136
KCOM 241815Z AUTO 22014G18KT 10SM SCT033 25/14 A3006 RMK AO2 T02520138
KCOM 241755Z AUTO 20014G20KT 10SM SCT028 SCT033 25/14 A3006 RMK AO2 T02490140 10251 20132
KCOM 241735Z AUTO 23009G22KT 10SM BKN026 24/15 A3006 RMK AO2 T02400148
KCOM 241715Z AUTO 21010G18KT 170V230 10SM SCT026 24/15 A3007 RMK AO2 T02380148
KCOM 241655Z AUTO 21015G19KT 10SM SCT024 23/15 A3008 RMK AO2 T02260146
KCOM 241635Z AUTO 21015G19KT 10SM SCT024 22/15 A3008 RMK AO2 T02200147
KCOM 241615Z AUTO 22010G20KT 10SM SCT022 22/15 A3008 RMK AO2 T02200147
KCOM 241555Z AUTO 21013G18KT 10SM CLR 21/15 A3008 RMK AO2 T02090151
KCOM 241535Z AUTO 20012KT 10SM SCT027 20/15 A3008 RMK AO2 T02010152
KCOM 241515Z AUTO 20011KT 10SM SCT027 20/15 A3008 RMK AO2 T02010152
KCOM 241455Z AUTO 20010KT 10SM SCT029 19/15 A3008 RMK AO2 T01910151
KCOM 241435Z AUTO 19005KT 10SM BKN029 18/15 A3008 RMK AO2 T01800151
KCOM 241415Z AUTO 19006KT 10SM OVC029 17/15 A3008 RMK AO2 T01660150
KCOM 241355Z AUTO 18005KT 10SM OVC029 16/15 A3007 RMK AO2 T01590152
KCOM 241335Z AUTO 21003KT 10SM OVC029 15/15 A3007 RMK AO2 T01500145
KCOM 241315Z AUTO 00000KT 5SM BR OVC029 14/14 A3006 RMK AO2 T01410136
KCOM 241255Z AUTO 18003KT 4SM BR OVC029 14/13 A3006 RMK AO2 T01350130
KCOM 241235Z AUTO 00000KT 2SM BR OVC029 13/13 A3006 RMK AO2 T01340127
KCOM 241215Z AUTO 00000KT 3SM BR CLR 14/13 A3005 RMK AO2 T01380132
KCOM 241155Z AUTO 00000KT 2 1/2SM BR CLR 14/13 A3005 RMK AO2 VIS 1 1/2V3 T01400134 10175 20135
KCOM 241135Z AUTO 00000KT 5SM BR SCT027 14/13 A3004 RMK AO2 T01360129
KCOM 241115Z AUTO 00000KT 10SM CLR 15/13 A3004 RMK AO2 T01460133
KCOM 241055Z AUTO 19004KT 10SM CLR 15/13 A3003 RMK AO2 T01500134
KCOM 241035Z AUTO 20004KT 10SM CLR 15/14 A3003 RMK AO2 T01520135
KCOM 241015Z AUTO 20006KT 10SM CLR 16/14 A3003 RMK AO2 T01550136
KCOM 240955Z AUTO 20006KT 10SM CLR 16/14 A3001 RMK AO2 T01580136
KCOM 240935Z AUTO 20008KT 10SM CLR 16/14 A3001 RMK AO2 T01610138
KCOM 240915Z AUTO 20007KT 10SM CLR 16/14 A3001 RMK AO2 T01620138
KCOM 240855Z AUTO 20008KT 10SM SCT022 17/14 A3001 RMK AO2 T01650139
KCOM 240835Z AUTO 20008KT 10SM BKN022 17/14 A3001 RMK AO2 T01700140
KCOM 240815Z AUTO 20009KT 10SM BKN022 17/14 A3003 RMK AO2 T01730141
KCOM 240755Z AUTO 20011KT 10SM BKN020 18/14 A3003 RMK AO2 T01750141
KCOM 240735Z AUTO 20010KT 10SM OVC020 17/14 A3003 RMK AO2 T01740141
KCOM 240715Z AUTO 20010KT 10SM OVC020 18/14 A3004 RMK AO2 T01750142
KCOM 240655Z AUTO 20010KT 10SM OVC018 18/14 A3004 RMK AO2 T01750143
KCOM 240635Z AUTO 19008KT 10SM OVC018 17/14 A3004 RMK AO2 T01720143
KCOM 240615Z AUTO 20007KT 10SM BKN020 17/14 A3004 RMK AO2 T01680141
KCOM 240555Z AUTO 18007KT 10SM BKN020 17/14 A3004 RMK AO2 T01650140 10250 20163 402720147
KCOM 240535Z AUTO 18007KT 10SM CLR 16/14 A3004 RMK AO2 T01640137
KCOM 240515Z AUTO 18007KT 10SM CLR 17/14 A3003 RMK AO2 T01660137
KCOM 240455Z AUTO 18007KT 10SM CLR 17/14 A3003 RMK AO2 T01700137
KCOM 240435Z AUTO 18007KT 10SM CLR 17/14 A3003 RMK AO2 T01710137
KCOM 240415Z AUTO 18007KT 10SM CLR 18/14 A3003 RMK AO2 T01750137
KCOM 240355Z AUTO 18007KT 10SM CLR 18/14 A3002 RMK AO2 T01770137
KCOM 240335Z AUTO 18008KT 10SM CLR 18/14 A3001 RMK AO2 T01820137
KCOM 240315Z AUTO 18011KT 10SM CLR 19/14 A3000 RMK AO2 T01860138
KCOM 240255Z AUTO 19008KT 10SM CLR 19/14 A2999 RMK AO2 T01900139
KCOM 240235Z AUTO 17011KT 10SM CLR 19/14 A2999 RMK AO2 T01940140
KCOM 240215Z AUTO 18009KT 10SM CLR 20/14 A2998 RMK AO2 T01990139
KCOM 240155Z AUTO 16013KT 10SM CLR 20/14 A2997 RMK AO2 T02030139
KCOM 240135Z AUTO 16011KT 10SM CLR 21/14 A2996 RMK AO2 T02090139
KCOM 240115Z AUTO 15013G17KT 10SM CLR 21/14 A2996 RMK AO2 T02140140
KCOM 240055Z AUTO 17010KT 10SM CLR 22/14 A2996 RMK AO2 T02180139
KCOM 240035Z AUTO 16009KT 10SM CLR 23/14 A2996 RMK AO2 T02270138
KCOM 240015Z AUTO 21004KT 10SM CLR 25/07 A2996 RMK AO2 T02460065
KCOM 232355Z AUTO 21006KT 10SM CLR 25/07 A2996 RMK AO2 T02500065 10272 20220
KCOM 232335Z AUTO 20008KT 10SM CLR 26/06 A2996 RMK AO2 T02550057
KCOM 232315Z AUTO 22009KT 10SM CLR 26/06 A2996 RMK AO2 T02570058
KCOM 232255Z AUTO 21009KT 10SM SCT075 26/07 A2995 RMK AO2 T02600071
KCOM 232235Z AUTO 24006G15KT 10SM SCT075 SCT090 26/08 A2995 RMK AO2 T02610076
KCOM 232215Z AUTO 24007KT 10SM SCT075 26/08 A2995 RMK AO2 T02640078
KCOM 232155Z AUTO 20010G16KT 10SM SCT075 27/08 A2995 RMK AO2 T02700077
KCOM 232135Z AUTO 21011G17KT 10SM SCT075 27/08 A2995 RMK AO2 T02700080
KCOM 232115Z AUTO 23009KT 10SM SCT075 27/09 A2995 RMK AO2 T02700087
KCOM 232055Z AUTO 21013G18KT 10SM SCT075 27/10 A2995 RMK AO2 T02690095
KCOM 232035Z AUTO 18007KT 10SM SCT065 SCT075 26/10 A2996 RMK AO2 T02600096
KCOM 232015Z AUTO 20009G15KT 10SM SCT050 BKN075 26/10 A2997 RMK AO2 T02550104
KCOM 231955Z AUTO 17006G16KT 10SM BKN050 BKN060 26/11 A2998 RMK AO2 T02560109
KCOM 231935Z AUTO 20007G16KT 10SM BKN047 BKN050 25/11 A2998 RMK AO2 T02500112
KCOM 231915Z AUTO 20009G20KT 10SM BKN045 BKN050 25/12 A2999 RMK AO2 T02480115
KCOM 231855Z AUTO 19013G19KT 10SM BKN043 BKN050 25/12 A3000 RMK AO2 T02510120
KCOM 231835Z AUTO 19011G16KT 10SM SCT041 SCT050 25/12 A3001 RMK AO2 T02450123
KCOM 231815Z AUTO 20010G14KT 10SM SCT032 SCT041 BKN049 24/12 A3003 RMK AO2 T02350124
KCOM 231755Z AUTO 22008G15KT 10SM SCT032 BKN044 22/13 A3004 RMK AO2 T02220126 10231 20147
KCOM 231735Z AUTO 19010G14KT 10SM SCT026 SCT035 OVC044 23/14 A3004 RMK AO2 T02280136
KCOM 231715Z AUTO 20009G16KT 10SM BKN026 BKN033 OVC042 21/14 A3005 RMK AO2 LTG DSNT NE T02140136
KCOM 231655Z AUTO 20009KT 10SM BKN023 OVC032 21/14 A3005 RMK AO2 T02090138
KCOM 231635Z AUTO 19011KT 10SM BKN021 OVC032 20/14 A3006 RMK AO2 T02030140
KCOM 231615Z AUTO 21007KT 10SM OVC021 19/14 A3006 RMK AO2 LTG DSNT NE T01930137
KCOM 231555Z AUTO 20007KT 10SM OVC021 19/14 A3007 RMK AO2 LTG DSNT NE T01890135
KCOM 231535Z AUTO 18008KT 10SM BKN021 BKN028 OVC033 18/13 A3006 RMK AO2 T01830130
KCOM 231515Z AUTO 19010KT 10SM OVC031 18/13 A3006 RMK AO2 LTG DSNT NE T01810129
KCOM 231455Z AUTO 18008G14KT 10SM OVC031 18/13 A3005 RMK AO2 LTG DSNT NE T01760125
KCOM 231435Z AUTO 18008KT 10SM SCT023 OVC031 17/12 A3004 RMK AO2 LTG DSNT NE T01720121
KCOM 231415Z AUTO 18008KT 10SM SCT021 OVC031 17/12 A3004 RMK AO2 LTG DSNT NE T01690119
KCOM 231355Z AUTO 17008KT 10SM SCT021 OVC031 16/12 A3003 RMK AO2 LTG DSNT NE T01630117
KCOM 231335Z AUTO 18006KT 10SM BKN021 OVC033 16/12 A3003 RMK AO2 T01600115
KCOM 231315Z AUTO 17006KT 10SM SCT024 OVC033 16/11 A3002 RMK AO2 T01550111
KCOM 231255Z AUTO 16007KT 10SM BKN025 BKN030 BKN035 15/11 A3001 RMK AO2
KCOM 231235Z AUTO 16007KT 10SM SCT030 15/11 A3001 RMK AO2 LTG DSNT NE T01480105
KCOM 231215Z AUTO 17008KT 10SM SCT030 15/10 A3000 RMK AO2 T01520103
KCOM 231155Z AUTO 17009KT 10SM SCT030 15/10 A3000 RMK AO2 T01530103 10162 20152
KCOM 231135Z AUTO 18008KT 10SM SCT034 SCT042 15/10 A3000 RMK AO2 T01530100
KCOM 231115Z AUTO 17008KT 10SM BKN027 OVC034 16/10 A2999 RMK AO2 LTG DSNT N AND E T01570100
KCOM 231055Z AUTO 19006KT 10SM OVC027 16/10 A3000 RMK AO2 T01570100
KCOM 231035Z AUTO 19007KT 10SM OVC027 16/10 A3000 RMK AO2 T01570097
KCOM 231015Z AUTO 19006KT 10SM OVC027 16/10 A2999 RMK AO2 T01570097
KCOM 230955Z AUTO 19005KT 10SM OVC027 16/10 A2999 RMK AO2 T01580096